Time;durP1;ratioP1;P1;durP2;ratioP2;P2;SDS_P1;SDS_P2;PMS_P1;PMS_P2;Temp;Humidity;BMP_temperature;BMP_pressure;BME280_temperature;BME280_humidity;BME280_pressure;Samples;Min_cycle;Max_cycle;Signal;HPM_P1;HPM_P2
2021/06/13 00:01:26;;;;;;;10.30;4.65;;;13.80;80.90;;;;;;4947570;28;20059;-65
2021/06/13 00:03:54;;;;;;;6.57;2.95;;;13.70;81.40;;;;;;4950144;28;20035;-64
2021/06/13 00:06:21;;;;;;;6.10;2.85;;;13.70;81.20;;;;;;4951115;28;20051;-65
2021/06/13 00:08:48;;;;;;;6.13;3.28;;;13.70;80.60;;;;;;4949916;28;20058;-65
2021/06/13 00:11:15;;;;;;;5.05;2.55;;;13.70;81.00;;;;;;4944108;28;20055;-65
2021/06/13 00:13:44;;;;;;;8.27;3.17;;;13.60;80.80;;;;;;4947470;28;20055;-65
2021/06/13 00:16:15;;;;;;;4.82;2.80;;;13.60;81.20;;;;;;4945112;28;20055;-65
2021/06/13 00:18:42;;;;;;;;;;;13.50;81.10;;;;;;4961657;28;20090;-65
2021/06/13 00:21:09;;;;;;;9.05;2.67;;;13.60;81.30;;;;;;4948116;28;19990;-65
2021/06/13 00:23:38;;;;;;;4.85;2.50;;;13.50;81.70;;;;;;4955348;28;20067;-64
2021/06/13 00:26:08;;;;;;;6.40;2.97;;;13.40;81.50;;;;;;4948538;28;20067;-64
2021/06/13 00:28:36;;;;;;;7.25;2.53;;;13.40;81.60;;;;;;4950560;28;20055;-66
2021/06/13 00:31:03;;;;;;;6.47;2.65;;;13.30;81.90;;;;;;4949463;28;20071;-64
2021/06/13 00:33:34;;;;;;;7.40;3.72;;;13.30;82.00;;;;;;4951515;28;20039;-65
2021/06/13 00:36:02;;;;;;;7.32;3.63;;;13.30;82.00;;;;;;4947628;28;20055;-65
2021/06/13 00:38:30;;;;;;;7.13;3.38;;;13.30;82.10;;;;;;4946916;28;20068;-65
2021/06/13 00:40:57;;;;;;;8.50;3.83;;;13.20;82.40;;;;;;4949309;28;20059;-65
2021/06/13 00:43:27;;;;;;;6.47;2.38;;;13.20;82.70;;;;;;4945651;28;20050;-66
2021/06/13 00:45:55;;;;;;;5.85;2.47;;;13.20;82.40;;;;;;4948440;28;20055;-65
2021/06/13 00:48:25;;;;;;;6.78;3.67;;;13.20;82.00;;;;;;4949668;28;20679;-64
2021/06/13 00:50:55;;;;;;;6.80;3.22;;;13.10;82.60;;;;;;4951738;28;20096;-64
2021/06/13 00:53:26;;;;;;;7.32;3.50;;;13.00;82.90;;;;;;4953170;28;20089;-64
2021/06/13 00:56:05;;;;;;;6.97;4.00;;;13.00;83.00;;;;;;4949798;28;20055;-66
2021/06/13 00:58:35;;;;;;;9.10;4.07;;;12.90;83.00;;;;;;4949734;28;20058;-64
2021/06/13 01:01:04;;;;;;;7.00;3.42;;;12.80;82.90;;;;;;4947090;28;20046;-64
2021/06/13 01:03:35;;;;;;;9.32;3.72;;;12.90;83.10;;;;;;4957182;28;20243;-65
2021/06/13 01:06:04;;;;;;;9.48;3.63;;;12.80;83.30;;;;;;4952166;28;20487;-64
2021/06/13 01:08:42;;;;;;;6.22;3.60;;;12.80;83.30;;;;;;4951551;28;20122;-65
2021/06/13 01:11:16;;;;;;;6.90;3.88;;;12.80;83.40;;;;;;4948825;28;20047;-65
2021/06/13 01:13:51;;;;;;;5.45;3.00;;;12.70;83.40;;;;;;4947325;28;20130;-66
2021/06/13 01:16:27;;;;;;;6.47;2.60;;;12.70;83.80;;;;;;4957822;28;20130;-65
2021/06/13 01:19:00;;;;;;;5.93;2.67;;;12.60;83.60;;;;;;4950090;28;20051;-64
2021/06/13 01:21:35;;;;;;;5.95;3.08;;;12.60;83.50;;;;;;4951069;28;20047;-65
2021/06/13 01:24:16;;;;;;;5.95;2.22;;;12.50;83.40;;;;;;4949303;28;20053;-64
2021/06/13 01:27:20;;;;;;;3.17;1.95;;;12.50;83.70;;;;;;4949701;28;20404;-65
2021/06/13 01:29:52;;;;;;;3.72;1.95;;;12.40;83.80;;;;;;4962831;28;20339;-65
2021/06/13 01:32:24;;;;;;;7.82;2.50;;;12.40;84.00;;;;;;4949065;28;20069;-66
2021/06/13 01:34:57;;;;;;;8.95;2.88;;;12.40;83.80;;;;;;4952316;28;20058;-65
2021/06/13 01:37:35;;;;;;;3.08;1.75;;;12.30;84.00;;;;;;4966011;28;20066;-66
2021/06/13 01:40:10;;;;;;;3.63;1.73;;;12.20;84.10;;;;;;4960271;28;20130;-66
2021/06/13 01:42:47;;;;;;;5.38;2.13;;;12.30;84.10;;;;;;4949484;28;20063;-65
2021/06/13 01:45:22;;;;;;;4.53;1.75;;;12.20;84.20;;;;;;4965390;28;20118;-66
2021/06/13 01:47:51;;;;;;;7.45;1.70;;;12.10;84.20;;;;;;4961933;28;20047;-66
2021/06/13 01:50:23;;;;;;;5.47;1.90;;;12.10;84.20;;;;;;4956328;28;20133;-66
2021/06/13 01:52:53;;;;;;;6.55;2.10;;;12.10;84.00;;;;;;4959641;28;20417;-65
2021/06/13 01:55:22;;;;;;;5.53;2.08;;;12.10;84.20;;;;;;4963845;28;20185;-66
2021/06/13 01:57:50;;;;;;;4.00;1.83;;;12.00;84.50;;;;;;4957465;28;20059;-64
2021/06/13 02:00:38;;;;;;;4.43;1.90;;;11.90;84.50;;;;;;4956045;28;20055;-65
2021/06/13 02:03:14;;;;;;;3.25;1.90;;;11.80;84.90;;;;;;4948185;28;20043;-65
2021/06/13 02:05:53;;;;;;;3.63;1.95;;;11.80;85.10;;;;;;4948772;28;20055;-65
2021/06/13 02:08:24;;;;;;;3.58;2.05;;;11.80;84.80;;;;;;4955951;28;20544;-65
2021/06/13 02:11:04;;;;;;;6.38;2.08;;;11.80;84.80;;;;;;5023751;28;20126;-65
2021/06/13 02:13:33;;;;;;;5.18;2.00;;;11.80;84.70;;;;;;4965783;28;20077;-64
2021/06/13 02:16:07;;;;;;;3.50;1.85;;;11.70;84.80;;;;;;4949420;28;20039;-64
2021/06/13 02:18:38;;;;;;;4.28;2.20;;;11.70;85.00;;;;;;4950653;28;20074;-65
2021/06/13 02:21:11;;;;;;;4.68;2.28;;;11.70;85.20;;;;;;4948589;28;20083;-65
2021/06/13 02:23:39;;;;;;;3.17;2.03;;;11.60;85.40;;;;;;4960552;28;20059;-64
2021/06/13 02:26:10;;;;;;;7.63;3.03;;;11.60;85.40;;;;;;4947820;28;20055;-64
2021/06/13 02:28:41;;;;;;;6.80;2.08;;;11.50;85.60;;;;;;4947823;28;20235;-66
2021/06/13 02:31:18;;;;;;;4.45;2.20;;;11.40;85.80;;;;;;4945477;28;20064;-65
2021/06/13 02:33:47;;;;;;;4.95;1.98;;;11.40;86.10;;;;;;4950172;28;20051;-65
2021/06/13 02:36:17;;;;;;;3.55;1.88;;;11.30;85.90;;;;;;4960416;28;20058;-66
2021/06/13 02:38:55;;;;;;;5.53;1.98;;;11.20;85.60;;;;;;4947057;28;20090;-64
2021/06/13 02:41:28;;;;;;;3.08;1.70;;;11.20;86.00;;;;;;4950890;28;20059;-66
2021/06/13 02:43:56;;;;;;;5.30;2.10;;;11.10;86.20;;;;;;4967040;28;20118;-64
2021/06/13 02:46:35;;;;;;;7.28;1.95;;;11.10;86.20;;;;;;4948724;28;20047;-64
2021/06/13 02:49:04;;;;;;;5.05;1.85;;;11.00;86.60;;;;;;4964665;28;20055;-65
2021/06/13 02:51:35;;;;;;;6.18;2.03;;;11.10;86.20;;;;;;4948036;28;20066;-64
2021/06/13 02:54:08;;;;;;;4.43;1.70;;;11.20;85.90;;;;;;4952911;28;20059;-64
2021/06/13 02:56:40;;;;;;;4.25;2.20;;;11.20;85.70;;;;;;4971906;28;20056;-66
2021/06/13 02:59:21;;;;;;;3.72;2.00;;;11.20;85.80;;;;;;4970622;28;20050;-64
2021/06/13 03:01:51;;;;;;;7.50;1.90;;;11.20;85.80;;;;;;4949900;28;20055;-64
2021/06/13 03:04:21;;;;;;;5.03;3.08;;;11.20;85.90;;;;;;4964708;28;20048;-65
2021/06/13 03:06:54;;;;;;;10.57;2.50;;;11.10;86.30;;;;;;4966921;28;20074;-65
2021/06/13 03:09:23;;;;;;;6.15;2.00;;;11.10;86.30;;;;;;4951536;28;20128;-64
2021/06/13 03:11:53;;;;;;;3.80;2.10;;;11.00;86.40;;;;;;4951592;28;20103;-65
2021/06/13 03:14:23;;;;;;;5.60;1.77;;;11.00;86.40;;;;;;4954921;28;20129;-65
2021/06/13 03:16:53;;;;;;;5.93;2.38;;;11.00;86.30;;;;;;4948619;28;20334;-65
2021/06/13 03:19:21;;;;;;;4.93;2.27;;;11.00;86.10;;;;;;4948780;28;20141;-64
2021/06/13 03:21:50;;;;;;;3.45;1.95;;;11.00;85.90;;;;;;4951527;28;20421;-66
2021/06/13 03:24:22;;;;;;;6.90;2.42;;;10.90;86.10;;;;;;4949189;28;20339;-64
2021/06/13 03:26:52;;;;;;;9.18;2.85;;;10.90;86.30;;;;;;4949205;28;20404;-65
2021/06/13 03:29:21;;;;;;;5.22;2.33;;;10.90;86.40;;;;;;4952078;28;20106;-65
2021/06/13 03:31:51;;;;;;;5.90;1.70;;;10.90;86.20;;;;;;4952559;28;20358;-65
2021/06/13 03:34:19;;;;;;;5.28;1.63;;;10.90;86.30;;;;;;4963821;28;20066;-65
2021/06/13 03:36:49;;;;;;;5.43;1.90;;;10.90;85.80;;;;;;4965161;28;20051;-66
2021/06/13 03:39:19;;;;;;;6.30;1.83;;;10.80;85.70;;;;;;4952679;28;20149;-65
2021/06/13 03:41:48;;;;;;;4.90;2.15;;;10.70;85.70;;;;;;4954464;28;20064;-65
2021/06/13 03:44:18;;;;;;;3.20;1.65;;;10.70;85.90;;;;;;4947296;28;20054;-64
2021/06/13 03:46:46;;;;;;;4.85;1.73;;;10.60;86.10;;;;;;4949279;28;20205;-64
2021/06/13 03:49:17;;;;;;;3.45;1.75;;;10.70;86.20;;;;;;4952379;28;20286;-65
2021/06/13 03:51:46;;;;;;;3.55;1.67;;;10.70;86.20;;;;;;4950485;28;20278;-65
2021/06/13 03:54:13;;;;;;;3.35;1.65;;;10.70;86.20;;;;;;4955974;28;20078;-65
2021/06/13 03:56:44;;;;;;;4.22;2.17;;;10.80;86.10;;;;;;4949395;28;20197;-65
2021/06/13 03:59:17;;;;;;;4.40;1.83;;;10.80;86.10;;;;;;4949658;28;20092;-64
2021/06/13 04:01:46;;;;;;;6.75;2.53;;;10.80;86.10;;;;;;4942857;28;20227;-65
2021/06/13 04:04:16;;;;;;;5.75;2.33;;;10.80;86.10;;;;;;4947930;28;20070;-64
2021/06/13 04:06:48;;;;;;;3.47;1.75;;;10.90;86.20;;;;;;4949712;28;20061;-65
2021/06/13 04:09:18;;;;;;;5.47;1.67;;;10.90;86.00;;;;;;4949774;28;20077;-65
2021/06/13 04:11:46;;;;;;;3.92;2.03;;;10.90;85.60;;;;;;4953664;28;20051;-65
2021/06/13 04:14:15;;;;;;;3.30;1.80;;;10.80;85.40;;;;;;4949091;28;20047;-66
2021/06/13 04:16:47;;;;;;;3.33;1.45;;;10.90;85.50;;;;;;4949295;28;20285;-65
2021/06/13 04:19:18;;;;;;;3.65;2.25;;;10.90;85.60;;;;;;4948902;28;20266;-66
2021/06/13 04:21:47;;;;;;;2.85;1.80;;;10.90;85.40;;;;;;4947773;28;20063;-65
2021/06/13 04:24:21;;;;;;;4.55;1.75;;;10.90;85.40;;;;;;4952013;28;20115;-65
2021/06/13 04:26:49;;;;;;;4.47;1.70;;;10.90;85.30;;;;;;4951214;28;20055;-66
2021/06/13 04:29:20;;;;;;;6.53;2.80;;;11.00;85.30;;;;;;4951350;28;20177;-65
2021/06/13 04:31:48;;;;;;;5.65;1.98;;;11.10;85.30;;;;;;4950263;28;20059;-65
2021/06/13 04:34:15;;;;;;;3.80;1.80;;;11.10;85.20;;;;;;4951017;28;20377;-66
2021/06/13 04:36:43;;;;;;;2.45;1.33;;;11.10;85.20;;;;;;4949771;28;20059;-65
2021/06/13 04:39:12;;;;;;;4.03;1.65;;;11.20;85.00;;;;;;4948618;28;20059;-64
2021/06/13 04:41:43;;;;;;;4.28;1.80;;;11.10;84.90;;;;;;4949799;28;20047;-64
2021/06/13 04:44:12;;;;;;;5.43;1.70;;;11.20;85.10;;;;;;4952015;28;20051;-65
2021/06/13 04:46:42;;;;;;;5.13;2.13;;;11.20;85.00;;;;;;4949059;28;20064;-65
2021/06/13 04:49:12;;;;;;;4.82;1.95;;;11.20;84.80;;;;;;4954542;28;20085;-66
2021/06/13 04:51:43;;;;;;;4.45;2.15;;;11.30;84.80;;;;;;4950232;28;20090;-65
2021/06/13 04:54:43;;;;;;;3.92;2.20;;;11.30;84.80;;;;;;4948432;28;20047;-66
2021/06/13 04:57:25;;;;;;;4.32;1.65;;;11.30;84.70;;;;;;4952310;28;20055;-66
2021/06/13 04:59:56;;;;;;;7.28;1.95;;;11.40;84.30;;;;;;4948552;28;20078;-66
2021/06/13 05:02:24;;;;;;;4.50;2.22;;;11.50;83.90;;;;;;4944648;28;20430;-66
2021/06/13 05:04:54;;;;;;;6.30;1.90;;;11.60;84.10;;;;;;4950848;28;20074;-66
2021/06/13 05:07:22;;;;;;;4.22;1.80;;;11.60;83.70;;;;;;4949429;28;20063;-65
2021/06/13 05:09:51;;;;;;;3.47;1.67;;;11.70;83.70;;;;;;4951563;28;20047;-65
2021/06/13 05:12:18;;;;;;;5.40;1.70;;;11.70;83.60;;;;;;4949007;28;20083;-65
2021/06/13 05:14:46;;;;;;;3.85;2.05;;;11.80;83.30;;;;;;4950651;28;20052;-65
2021/06/13 05:17:14;;;;;;;5.93;2.17;;;11.90;83.20;;;;;;4956497;28;20259;-66
2021/06/13 05:19:42;;;;;;;4.63;2.22;;;12.00;82.60;;;;;;4948815;28;20075;-65
2021/06/13 05:22:10;;;;;;;7.57;1.98;;;12.10;82.60;;;;;;4948456;28;20066;-65
2021/06/13 05:24:37;;;;;;;7.22;2.00;;;12.10;82.50;;;;;;4947731;28;20043;-65
2021/06/13 05:27:08;;;;;;;3.33;1.80;;;12.20;82.30;;;;;;4962297;28;20435;-65
2021/06/13 05:29:35;;;;;;;;;;;12.30;82.30;;;;;;4950920;28;20066;-64
2021/06/13 05:32:04;;;;;;;6.63;1.90;;;12.40;82.10;;;;;;4950403;28;19962;-65
2021/06/13 05:34:33;;;;;;;4.95;2.20;;;12.60;81.60;;;;;;4949010;28;20055;-65
2021/06/13 05:37:07;;;;;;;;;;;12.60;81.00;;;;;;4947042;28;20055;-66
2021/06/13 05:39:41;;;;;;;3.50;1.75;;;12.70;80.60;;;;;;4963568;28;19961;-66
2021/06/13 05:42:10;;;;;;;4.03;1.75;;;12.80;80.00;;;;;;4948250;28;20112;-65
2021/06/13 05:44:38;;;;;;;5.35;2.03;;;12.90;80.20;;;;;;4946467;28;20070;-65
2021/06/13 05:47:05;;;;;;;5.30;2.10;;;13.10;80.10;;;;;;4949390;28;20551;-64
2021/06/13 05:49:34;;;;;;;5.78;2.10;;;13.20;79.50;;;;;;4959457;28;20242;-65
2021/06/13 05:52:02;;;;;;;8.27;2.35;;;13.30;78.60;;;;;;4944792;28;20668;-65
2021/06/13 05:54:30;;;;;;;4.78;2.20;;;13.30;78.20;;;;;;4947012;28;20051;-65
2021/06/13 05:56:58;;;;;;;7.72;2.08;;;13.40;77.80;;;;;;4951131;28;20055;-65
2021/06/13 05:59:27;;;;;;;8.50;1.98;;;13.60;76.60;;;;;;4950918;28;20046;-66
2021/06/13 06:01:54;;;;;;;11.23;2.67;;;13.70;77.60;;;;;;4944595;28;20067;-65
2021/06/13 06:04:22;;;;;;;8.73;1.98;;;13.90;75.90;;;;;;4947589;28;20232;-65
2021/06/13 06:06:52;;;;;;;7.65;1.83;;;14.10;74.60;;;;;;4948908;28;20334;-65
2021/06/13 06:09:20;;;;;;;;;;;14.20;72.70;;;;;;4952782;28;20149;-65
2021/06/13 06:11:49;;;;;;;4.32;1.63;;;14.30;72.10;;;;;;4942957;28;20241;-64
2021/06/13 06:14:16;;;;;;;7.20;1.60;;;14.40;71.30;;;;;;4949048;28;20051;-65
2021/06/13 06:16:50;;;;;;;8.50;2.30;;;14.60;71.30;;;;;;4947844;28;20257;-66
2021/06/13 06:19:19;;;;;;;9.25;1.75;;;14.80;68.00;;;;;;4949417;28;20051;-65
2021/06/13 06:21:46;;;;;;;5.40;1.77;;;14.90;70.90;;;;;;4950426;28;20059;-64
2021/06/13 06:24:15;;;;;;;5.22;2.33;;;15.10;69.30;;;;;;4949391;28;20043;-65
2021/06/13 06:26:42;;;;;;;18.30;2.90;;;15.10;65.80;;;;;;4949239;28;20059;-66
2021/06/13 06:29:10;;;;;;;9.43;2.03;;;15.10;64.00;;;;;;4950282;28;20064;-66
2021/06/13 06:31:37;;;;;;;10.25;2.30;;;15.20;65.40;;;;;;4953850;28;20486;-65
2021/06/13 06:34:06;;;;;;;8.60;2.35;;;15.20;63.30;;;;;;4955367;28;20059;-66
2021/06/13 06:36:34;;;;;;;7.88;2.03;;;15.20;63.50;;;;;;4950907;28;20135;-66
2021/06/13 06:39:02;;;;;;;5.05;1.77;;;15.10;63.30;;;;;;4952863;28;20305;-65
2021/06/13 06:41:30;;;;;;;5.00;2.25;;;15.00;63.90;;;;;;4953103;28;20581;-65
2021/06/13 06:43:57;;;;;;;6.88;2.28;;;15.00;62.90;;;;;;4952434;28;20066;-64
2021/06/13 06:46:24;;;;;;;3.83;2.08;;;15.00;62.20;;;;;;4950431;28;20063;-66
2021/06/13 06:48:52;;;;;;;12.95;2.70;;;15.00;62.60;;;;;;4950371;28;20126;-65
2021/06/13 06:51:21;;;;;;;5.75;2.05;;;15.00;63.60;;;;;;4952739;28;20055;-66
2021/06/13 06:53:48;;;;;;;5.55;2.15;;;15.20;64.60;;;;;;4953920;28;20067;-65
2021/06/13 06:56:16;;;;;;;5.93;2.00;;;15.40;61.80;;;;;;4951236;28;20059;-66
2021/06/13 06:58:43;;;;;;;5.80;1.95;;;15.70;65.70;;;;;;4953411;28;20059;-65
2021/06/13 07:01:11;;;;;;;6.43;2.10;;;15.70;60.10;;;;;;4946403;28;20059;-65
2021/06/13 07:03:40;;;;;;;8.90;2.33;;;15.80;59.70;;;;;;4950662;28;20147;-64
2021/06/13 07:06:09;;;;;;;8.13;2.00;;;16.10;57.90;;;;;;4952572;28;20054;-65
2021/06/13 07:08:38;;;;;;;5.85;1.80;;;16.10;57.80;;;;;;4953402;28;20062;-64
2021/06/13 07:11:06;;;;;;;6.80;1.77;;;16.20;59.20;;;;;;4949906;28;20119;-65
2021/06/13 07:13:34;;;;;;;5.22;1.85;;;16.60;57.70;;;;;;4950768;28;20133;-65
2021/06/13 07:16:03;;;;;;;7.40;1.63;;;16.80;55.10;;;;;;4950728;28;20051;-66
2021/06/13 07:18:31;;;;;;;5.43;1.73;;;17.00;57.10;;;;;;4951253;28;20131;-65
2021/06/13 07:20:59;;;;;;;9.63;2.33;;;17.10;55.50;;;;;;4950473;28;20359;-65
2021/06/13 07:23:27;;;;;;;3.67;1.50;;;17.10;54.30;;;;;;4947846;28;20118;-64
2021/06/13 07:25:56;;;;;;;4.63;1.52;;;17.10;53.10;;;;;;4951948;28;20126;-65
2021/06/13 07:28:23;;;;;;;4.10;1.65;;;17.20;54.60;;;;;;4954619;28;20300;-66
2021/06/13 07:30:51;;;;;;;8.10;1.77;;;17.30;53.10;;;;;;4950890;28;20063;-66
2021/06/13 07:33:19;;;;;;;4.10;1.58;;;17.20;52.20;;;;;;4951949;28;20120;-66
2021/06/13 07:35:47;;;;;;;5.07;1.70;;;17.30;53.50;;;;;;4948100;28;20051;-65
2021/06/13 07:38:15;;;;;;;8.45;1.80;;;17.60;53.20;;;;;;4951708;28;20047;-67
2021/06/13 07:40:43;;;;;;;4.40;1.95;;;17.80;52.80;;;;;;4948014;28;20596;-65
2021/06/13 07:43:12;;;;;;;7.50;2.20;;;17.90;51.60;;;;;;4948768;28;20598;-65
2021/06/13 07:45:40;;;;;;;9.93;1.40;;;18.10;56.30;;;;;;4954306;28;20116;-66
2021/06/13 07:48:08;;;;;;;8.95;1.85;;;17.80;51.70;;;;;;4954681;28;20074;-66
2021/06/13 07:50:38;;;;;;;5.82;1.60;;;17.90;52.30;;;;;;4955716;28;20066;-64
2021/06/13 07:53:06;;;;;;;7.97;1.83;;;18.10;53.60;;;;;;4951927;28;20123;-65
2021/06/13 07:55:34;;;;;;;5.00;1.65;;;18.20;50.30;;;;;;4949167;28;20050;-66
2021/06/13 07:58:01;;;;;;;6.35;1.67;;;18.10;49.70;;;;;;4949367;28;20132;-66
2021/06/13 08:00:33;;;;;;;5.38;1.40;;;17.20;51.20;;;;;;4945758;28;20267;-65
2021/06/13 08:03:01;;;;;;;7.10;1.88;;;17.20;52.30;;;;;;4951106;28;20126;-66
2021/06/13 08:05:35;;;;;;;7.30;2.00;;;17.40;51.90;;;;;;4950625;28;20047;-65
2021/06/13 08:08:05;;;;;;;4.90;1.58;;;17.20;51.70;;;;;;4952985;28;20055;-66
2021/06/13 08:10:35;;;;;;;4.63;1.50;;;17.00;51.40;;;;;;4957100;28;20063;-67
2021/06/13 08:13:12;;;;;;;9.77;1.53;;;17.30;53.80;;;;;;4951399;28;20319;-65
2021/06/13 08:15:43;;;;;;;5.55;1.42;;;17.90;52.90;;;;;;4963588;28;20067;-65
2021/06/13 08:18:11;;;;;;;8.15;2.15;;;17.90;50.30;;;;;;4951207;28;20551;-66
2021/06/13 08:20:39;;;;;;;5.63;1.60;;;17.70;50.50;;;;;;4950338;28;20101;-66
2021/06/13 08:23:07;;;;;;;5.30;1.58;;;17.80;51.00;;;;;;4951586;28;20055;-65
2021/06/13 08:25:36;;;;;;;4.65;1.55;;;17.80;50.50;;;;;;4948040;28;20052;-65
2021/06/13 08:28:05;;;;;;;5.25;1.40;;;18.10;54.00;;;;;;4950637;28;20047;-66
2021/06/13 08:30:33;;;;;;;4.13;1.67;;;18.20;50.70;;;;;;4947849;28;20062;-66
2021/06/13 08:33:02;;;;;;;4.20;1.50;;;18.20;52.70;;;;;;4952698;28;20362;-65
2021/06/13 08:35:30;;;;;;;5.32;1.42;;;18.30;48.20;;;;;;4951837;28;20047;-65
2021/06/13 08:38:01;;;;;;;4.93;1.58;;;18.40;52.10;;;;;;4950288;28;20055;-65
2021/06/13 08:40:29;;;;;;;5.28;1.85;;;18.50;48.30;;;;;;4950229;28;20057;-65
2021/06/13 08:43:05;;;;;;;4.88;1.15;;;18.40;49.50;;;;;;4952843;28;20089;-65
2021/06/13 08:45:38;;;;;;;6.95;1.90;;;18.60;50.60;;;;;;4950595;28;20330;-65
2021/06/13 08:48:09;;;;;;;7.18;2.10;;;18.70;50.50;;;;;;4951147;28;20067;-65
2021/06/13 08:50:37;;;;;;;6.80;2.33;;;18.80;49.30;;;;;;4952673;28;20055;-64
2021/06/13 08:53:09;;;;;;;4.82;2.38;;;18.90;47.70;;;;;;4961570;28;20051;-65
2021/06/13 08:55:38;;;;;;;4.85;1.67;;;18.90;48.40;;;;;;4948327;28;20047;-65
2021/06/13 08:58:10;;;;;;;7.25;2.08;;;19.10;48.20;;;;;;4950372;28;20183;-66
2021/06/13 09:00:38;;;;;;;5.30;1.17;;;19.10;47.50;;;;;;4948820;28;20043;-65
2021/06/13 09:03:08;;;;;;;6.57;2.00;;;18.90;47.30;;;;;;4946566;28;20059;-65
2021/06/13 09:05:35;;;;;;;;;;;18.90;47.70;;;;;;4949229;28;20064;-66
2021/06/13 09:08:09;;;;;;;7.55;2.92;;;18.90;47.90;;;;;;4949664;28;19926;-65
2021/06/13 09:10:38;;;;;;;4.32;1.45;;;19.10;48.40;;;;;;4947493;28;20050;-65
2021/06/13 09:13:14;;;;;;;5.97;1.73;;;19.20;48.40;;;;;;4947280;28;20300;-65
2021/06/13 09:15:44;;;;;;;6.25;1.50;;;19.30;46.80;;;;;;4951713;28;20273;-66
2021/06/13 09:18:29;;;;;;;6.63;2.33;;;19.40;49.80;;;;;;4960665;28;20067;-65
2021/06/13 09:20:57;;;;;;;4.28;1.05;;;19.70;46.70;;;;;;4946206;28;20067;-65
2021/06/13 09:23:25;;;;;;;6.03;1.77;;;19.60;44.70;;;;;;4947592;28;20220;-67
2021/06/13 09:26:02;;;;;;;3.10;1.40;;;19.80;46.10;;;;;;4946990;28;20063;-65
2021/06/13 09:28:32;;;;;;;4.38;1.63;;;19.70;44.30;;;;;;4946353;28;20055;-66
2021/06/13 09:31:00;;;;;;;3.65;1.40;;;19.40;44.70;;;;;;4946087;28;20513;-66
2021/06/13 09:33:41;;;;;;;6.17;1.30;;;19.20;45.00;;;;;;4949293;28;20364;-66
2021/06/13 09:36:11;;;;;;;7.18;1.80;;;19.20;45.60;;;;;;4961622;28;20254;-65
2021/06/13 09:38:44;;;;;;;7.75;1.67;;;19.30;46.60;;;;;;4950296;28;20039;-66
2021/06/13 09:41:14;;;;;;;5.88;2.00;;;19.40;46.00;;;;;;4949871;28;20158;-65
2021/06/13 09:43:47;;;;;;;6.28;2.08;;;19.50;45.30;;;;;;4951741;28;20056;-66
2021/06/13 09:46:17;;;;;;;9.75;1.95;;;19.70;45.70;;;;;;4944277;28;20063;-66
2021/06/13 09:48:49;;;;;;;7.25;2.05;;;19.80;44.70;;;;;;4945583;28;20036;-65
2021/06/13 09:51:19;;;;;;;6.38;1.65;;;19.90;45.00;;;;;;4947161;28;20047;-65
2021/06/13 09:53:47;;;;;;;4.73;1.97;;;19.90;43.90;;;;;;4949413;28;20059;-65
2021/06/13 09:56:33;;;;;;;5.35;1.70;;;19.80;44.60;;;;;;4950590;28;20046;-64
2021/06/13 09:59:04;;;;;;;4.13;1.65;;;20.00;43.50;;;;;;4948604;28;20220;-64
2021/06/13 10:01:34;;;;;;;5.07;1.80;;;20.20;42.50;;;;;;4944176;28;20471;-65
2021/06/13 10:04:02;;;;;;;;;;;20.40;45.50;;;;;;4953992;28;20137;-65
2021/06/13 10:06:33;;;;;;;5.57;1.77;;;20.60;40.10;;;;;;4966787;28;19935;-65
2021/06/13 10:09:02;;;;;;;5.20;1.42;;;20.70;40.90;;;;;;4954810;28;20039;-66
2021/06/13 10:11:30;;;;;;;4.63;1.52;;;21.10;40.70;;;;;;4952646;28;20085;-66
2021/06/13 10:14:00;;;;;;;4.30;1.30;;;21.40;41.20;;;;;;4954214;28;20063;-66
2021/06/13 10:16:33;;;;;;;8.10;1.83;;;21.90;40.90;;;;;;4953701;28;20651;-65
2021/06/13 10:19:08;;;;;;;6.55;1.63;;;22.00;37.00;;;;;;4952715;28;20770;-66
2021/06/13 10:21:38;;;;;;;5.80;1.67;;;22.30;39.20;;;;;;4956375;28;20074;-66
2021/06/13 10:24:11;;;;;;;5.35;1.45;;;22.70;37.40;;;;;;4950906;28;20081;-66
2021/06/13 10:26:43;;;;;;;4.90;1.58;;;23.00;38.10;;;;;;4950508;28;20043;-65
2021/06/13 10:29:11;;;;;;;4.63;1.23;;;23.80;36.00;;;;;;4952631;28;20055;-66
2021/06/13 10:31:39;;;;;;;3.13;1.45;;;24.30;36.50;;;;;;4952429;28;20110;-65
2021/06/13 10:34:09;;;;;;;4.40;1.27;;;24.60;34.80;;;;;;4953375;28;20051;-65
2021/06/13 10:36:40;;;;;;;4.20;1.35;;;24.90;33.90;;;;;;4952185;28;20051;-67
2021/06/13 10:39:11;;;;;;;4.03;1.60;;;25.50;33.50;;;;;;4954370;28;20071;-66
2021/06/13 10:41:39;;;;;;;3.55;1.38;;;26.60;32.00;;;;;;4953247;28;20126;-65
2021/06/13 10:44:11;;;;;;;5.55;1.70;;;27.60;30.50;;;;;;4953209;28;20047;-69
2021/06/13 10:46:40;;;;;;;5.40;1.40;;;28.40;29.70;;;;;;4948835;28;20051;-65
2021/06/13 10:49:28;;;;;;;5.60;1.98;;;28.60;28.40;;;;;;4952361;28;20056;-65
2021/06/13 10:52:06;;;;;;;4.50;1.40;;;29.70;28.40;;;;;;4951919;28;20063;-66
2021/06/13 10:54:38;;;;;;;5.88;1.40;;;29.80;27.60;;;;;;4950792;28;20063;-65
2021/06/13 10:57:26;;;;;;;4.60;1.55;;;30.00;27.10;;;;;;4954519;28;20053;-67
2021/06/13 10:59:54;;;;;;;3.92;1.30;;;30.30;26.70;;;;;;4952202;28;20059;-66
2021/06/13 11:02:24;;;;;;;2.60;1.15;;;29.50;29.40;;;;;;4943879;28;20043;-65
2021/06/13 11:04:54;;;;;;;4.15;1.45;;;30.20;28.40;;;;;;4949515;28;20043;-66
2021/06/13 11:07:58;;;;;;;5.53;1.48;;;31.10;27.60;;;;;;4946222;28;20051;-67
2021/06/13 11:10:31;;;;;;;4.90;1.40;;;32.50;24.70;;;;;;4950332;28;20047;-65
2021/06/13 11:13:03;;;;;;;3.33;1.08;;;32.80;25.10;;;;;;4966508;28;20556;-66
2021/06/13 11:15:56;;;;;;;4.63;1.58;;;33.50;24.60;;;;;;4948411;28;20078;-66
2021/06/13 11:18:30;;;;;;;4.80;1.42;;;33.40;22.90;;;;;;4950931;28;20385;-66
2021/06/13 11:21:09;;;;;;;3.75;1.40;;;33.40;21.70;;;;;;4950310;28;20052;-66
2021/06/13 11:23:40;;;;;;;;;;;33.80;22.40;;;;;;4948491;28;20063;-66
2021/06/13 11:26:36;;;;;;;5.82;1.45;;;34.50;21.50;;;;;;4948418;28;20240;-66
2021/06/13 11:29:12;;;;;;;5.28;1.52;;;34.50;21.30;;;;;;4950146;28;20047;-67
2021/06/13 11:31:52;;;;;;;3.63;1.35;;;34.20;22.60;;;;;;4949578;28;20346;-67
2021/06/13 11:34:22;;;;;;;7.00;1.27;;;34.50;22.30;;;;;;4955724;28;20067;-66
2021/06/13 11:36:52;;;;;;;3.17;1.17;;;34.60;21.90;;;;;;4950533;28;20074;-67
2021/06/13 11:39:31;;;;;;;6.57;1.75;;;34.90;21.80;;;;;;4950171;28;20094;-68
2021/06/13 11:42:09;;;;;;;;;;;35.50;20.90;;;;;;4957423;28;20110;-66
2021/06/13 11:44:41;;;;;;;3.78;1.38;;;35.70;20.20;;;;;;4953931;28;20182;-67
2021/06/13 11:47:32;;;;;;;6.75;1.52;;;35.30;19.50;;;;;;4950262;28;20047;-65
2021/06/13 11:50:04;;;;;;;7.53;1.48;;;35.30;20.30;;;;;;4950070;28;20043;-66
2021/06/13 11:53:12;;;;;;;6.45;1.67;;;35.30;20.00;;;;;;4949849;28;20339;-67
2021/06/13 11:55:56;;;;;;;3.60;1.30;;;35.90;19.70;;;;;;4950505;28;20043;-66
2021/06/13 11:58:27;;;;;;;3.83;1.10;;;35.80;19.50;;;;;;4951165;28;20063;-66
2021/06/13 12:00:56;;;;;;;2.75;1.20;;;35.90;19.40;;;;;;4948009;28;21606;-65
2021/06/13 12:03:25;;;;;;;2.95;1.08;;;35.30;18.40;;;;;;4949774;28;20409;-65
2021/06/13 12:06:00;;;;;;;5.68;1.45;;;35.40;20.10;;;;;;4960508;28;20061;-66
2021/06/13 12:08:31;;;;;;;3.33;1.30;;;36.10;18.80;;;;;;4952734;28;20043;-66
2021/06/13 12:10:58;;;;;;;4.28;1.50;;;35.60;20.30;;;;;;4952500;28;20059;-65
2021/06/13 12:13:29;;;;;;;3.30;1.48;;;36.00;19.40;;;;;;4951326;28;20039;-65
2021/06/13 12:15:58;;;;;;;2.97;1.08;;;35.90;19.30;;;;;;4952831;28;20048;-67
2021/06/13 12:18:25;;;;;;;5.15;1.50;;;36.50;19.20;;;;;;4950761;28;20051;-65
2021/06/13 12:20:59;;;;;;;6.05;1.60;;;36.80;19.10;;;;;;4953373;28;20100;-65
2021/06/13 12:23:36;;;;;;;3.67;1.33;;;36.70;18.30;;;;;;4952672;28;20063;-67
2021/06/13 12:29:04;;;;;;;5.03;1.30;;;37.00;18.60;;;;;;4895312;28;20072;-66
2021/06/13 12:31:32;;;;;;;5.05;1.70;;;36.50;19.20;;;;;;4894452;28;20052;-65
2021/06/13 12:33:59;;;;;;;4.20;1.23;;;37.10;17.80;;;;;;4921140;28;20165;-67
2021/06/13 12:36:27;;;;;;;5.28;1.30;;;34.90;19.40;;;;;;4953553;28;20054;-67
2021/06/13 12:38:57;;;;;;;4.18;1.50;;;35.10;20.10;;;;;;4961575;28;20054;-67
2021/06/13 12:41:28;;;;;;;8.52;1.60;;;35.90;19.70;;;;;;4949318;28;20055;-66
2021/06/13 12:43:55;;;;;;;2.85;1.13;;;37.50;18.10;;;;;;4950271;28;20055;-67
2021/06/13 12:46:23;;;;;;;3.60;1.33;;;36.70;18.60;;;;;;4957921;28;20398;-66
2021/06/13 12:48:58;;;;;;;4.47;2.30;;;35.70;19.80;;;;;;4951464;28;20052;-67
2021/06/13 12:51:31;;;;;;;3.33;1.40;;;36.70;19.30;;;;;;4951797;28;20051;-66
2021/06/13 12:54:00;;;;;;;5.70;1.52;;;37.70;17.90;;;;;;4952360;28;20051;-66
2021/06/13 12:56:27;;;;;;;3.70;1.30;;;37.40;17.90;;;;;;4950668;28;20142;-66
2021/06/13 12:58:56;;;;;;;4.05;1.35;;;35.80;19.70;;;;;;4949147;28;20268;-67
2021/06/13 13:01:24;;;;;;;3.08;1.30;;;37.60;18.80;;;;;;4947121;28;20587;-67
2021/06/13 13:03:51;;;;;;;4.78;1.20;;;39.00;17.60;;;;;;4953461;28;20051;-67
2021/06/13 13:06:19;;;;;;;4.05;1.63;;;38.70;17.80;;;;;;4952201;28;20039;-66
2021/06/13 13:08:48;;;;;;;4.03;1.25;;;38.60;17.70;;;;;;4951048;28;20039;-67
2021/06/13 13:11:25;;;;;;;5.22;1.67;;;39.20;16.90;;;;;;4950356;28;20059;-66